createdAt,value
2022-10-29T00:00:42.539Z,9.90
2022-10-29T00:05:45.521Z,8.90
2022-10-29T00:10:49.877Z,9.27
2022-10-29T00:15:52.696Z,9.80
2022-10-29T00:21:01.940Z,9.45
2022-10-29T00:26:07.923Z,10.27
2022-10-29T00:31:16.442Z,9.40
2022-10-29T00:36:22.111Z,6.50
2022-10-29T00:41:30.376Z,8.07
2022-10-29T00:51:46.567Z,12.80
2022-10-29T00:56:53.816Z,11.95
2022-10-29T01:01:57.070Z,7.65
2022-10-29T01:07:00.251Z,10.00
2022-10-29T01:12:20.102Z,9.32
2022-10-29T01:17:31.654Z,10.18
2022-10-29T01:22:41.058Z,7.40
2022-10-29T01:28:04.057Z,7.97
2022-10-29T01:33:18.901Z,13.48
2022-10-29T01:38:33.440Z,10.02
2022-10-29T01:48:46.549Z,15.50
2022-10-29T01:53:50.687Z,8.77
2022-10-29T01:58:59.495Z,8.50
2022-10-29T02:04:23.239Z,11.75
2022-10-29T02:09:34.118Z,10.50
2022-10-29T02:14:42.558Z,8.95
2022-10-29T02:19:47.087Z,8.48
2022-10-29T02:24:50.496Z,7.50
2022-10-29T02:29:53.648Z,8.13
2022-10-29T02:34:58.417Z,6.97
2022-10-29T02:40:04.892Z,12.30
2022-10-29T02:45:08.606Z,14.00
2022-10-29T02:50:12.887Z,5.70
2022-10-29T03:00:19.484Z,10.15
2022-10-29T03:05:26.251Z,12.73
2022-10-29T03:10:29.332Z,9.52
2022-10-29T03:15:34.918Z,10.00
2022-10-29T03:20:41.316Z,7.70
2022-10-29T03:25:44.277Z,7.60
2022-10-29T03:30:47.404Z,7.35
2022-10-29T03:35:51.884Z,10.95
2022-10-29T03:40:57.415Z,9.98
2022-10-29T03:46:01.895Z,8.77
2022-10-29T03:51:08.921Z,6.82
2022-10-29T03:56:12.349Z,7.85
2022-10-29T04:01:15.163Z,9.90
2022-10-29T04:06:19.590Z,7.95
2022-10-29T04:16:28.030Z,12.35
2022-10-29T04:32:21.063Z,8.15
2022-10-29T04:37:25.435Z,17.70
2022-10-29T04:47:32.689Z,8.60
2022-10-29T04:52:36.783Z,9.02
2022-10-29T04:57:39.803Z,9.13
2022-10-29T05:02:44.823Z,11.13
2022-10-29T05:08:06.020Z,7.28
2022-10-29T05:13:12.131Z,7.95
2022-10-29T05:18:17.425Z,7.75
2022-10-29T05:23:22.065Z,10.43
2022-10-29T05:28:25.884Z,8.68
2022-10-29T05:33:28.644Z,9.27
2022-10-29T05:38:34.213Z,8.38
2022-10-29T05:43:37.420Z,11.13
2022-10-29T05:48:40.162Z,8.63
2022-10-29T05:53:44.372Z,11.27
2022-10-29T05:58:50.175Z,10.65
2022-10-29T06:08:57.272Z,10.63
2022-10-29T06:14:00.179Z,6.90
2022-10-29T06:19:03.259Z,12.55
2022-10-29T06:24:08.712Z,12.18
2022-10-29T06:29:11.490Z,11.82
2022-10-29T06:34:14.952Z,9.63
2022-10-29T06:39:19.404Z,9.47
2022-10-29T06:49:42.627Z,9.88
2022-10-29T06:54:47.148Z,10.55
2022-10-29T06:59:51.502Z,10.57
2022-10-29T07:09:59.352Z,8.70
2022-10-29T07:15:08.284Z,12.40
2022-10-29T07:20:19.191Z,11.00
2022-10-29T07:25:23.459Z,12.32
2022-10-29T07:30:26.313Z,8.98
2022-10-29T07:35:32.132Z,11.57
2022-10-29T07:40:56.742Z,8.50
2022-10-29T07:51:04.953Z,16.90
2022-10-29T07:56:12.968Z,14.15
2022-10-29T08:01:42.040Z,12.48
2022-10-29T08:06:57.155Z,11.73
2022-10-29T08:12:48.644Z,24.13
2022-10-29T08:17:56.156Z,9.25
2022-10-29T08:23:03.860Z,16.35
2022-10-29T08:28:07.902Z,9.68
2022-10-29T08:33:16.068Z,11.75
2022-10-29T08:38:18.885Z,8.55
2022-10-29T08:43:34.531Z,10.60
2022-10-29T08:48:46.662Z,10.15
2022-10-29T08:54:25.107Z,13.45
2022-10-29T08:59:27.507Z,13.48
2022-10-29T09:04:38.447Z,11.50
2022-10-29T09:09:48.698Z,12.35
2022-10-29T09:15:10.651Z,8.95
2022-10-29T09:20:31.930Z,12.43
2022-10-29T09:25:40.252Z,11.98
2022-10-29T09:30:51.133Z,15.05
2022-10-29T09:35:57.405Z,12.40
2022-10-29T09:41:04.603Z,13.18
2022-10-29T09:46:13.362Z,14.32
2022-10-29T09:51:29.932Z,9.38
2022-10-29T09:56:33.054Z,10.80
2022-10-29T10:01:36.203Z,13.67
2022-10-29T10:07:08.804Z,13.87
2022-10-29T10:12:31.118Z,12.80
2022-10-29T10:18:01.897Z,12.55
2022-10-29T10:23:49.421Z,15.35
2022-10-29T10:29:05.465Z,11.25
2022-10-29T10:34:18.473Z,10.52
2022-10-29T10:39:38.873Z,12.60
2022-10-29T10:44:57.214Z,11.35
2022-10-29T10:50:15.951Z,11.18
2022-10-29T10:55:28.942Z,8.40
2022-10-29T11:07:01.691Z,9.70
2022-10-29T11:12:18.863Z,11.57
2022-10-29T11:17:33.518Z,8.38
2022-10-29T11:23:08.250Z,9.95
2022-10-29T11:28:24.890Z,9.00
2022-10-29T11:33:47.556Z,7.97
2022-10-29T11:38:55.429Z,12.73
2022-10-29T11:43:59.641Z,9.38
2022-10-29T11:49:21.554Z,7.55
2022-10-29T11:54:38.793Z,10.82
2022-10-29T12:00:00.970Z,12.23
2022-10-29T12:05:14.366Z,7.55
2022-10-29T12:10:38.732Z,11.02
2022-10-29T12:15:56.624Z,6.50
2022-10-29T12:21:07.782Z,9.88
2022-10-29T12:26:16.543Z,7.65
2022-10-29T12:31:27.763Z,11.18
2022-10-29T12:36:37.974Z,15.10
2022-10-29T12:42:23.279Z,10.45
2022-10-29T12:47:46.736Z,5.60
2022-10-29T12:57:57.718Z,8.88
2022-10-29T13:08:35.465Z,9.23
2022-10-29T13:13:48.593Z,10.97
2022-10-29T13:19:18.332Z,12.43
2022-10-29T13:24:22.101Z,14.57
2022-10-29T13:29:47.238Z,11.25
2022-10-29T13:34:57.228Z,9.82
2022-10-29T13:40:40.194Z,11.57
2022-10-29T13:45:51.726Z,13.63
2022-10-29T13:51:03.969Z,11.73
2022-10-29T13:56:10.824Z,13.40
2022-10-29T14:01:27.867Z,13.43
2022-10-29T14:06:37.616Z,15.40
2022-10-29T14:11:43.777Z,13.27
2022-10-29T14:16:46.761Z,11.50
2022-10-29T14:21:52.132Z,11.18
2022-10-29T14:27:10.407Z,10.55
2022-10-29T14:32:15.654Z,14.65
2022-10-29T14:37:29.721Z,13.15
2022-10-29T14:42:35.430Z,10.18
2022-10-29T14:47:40.602Z,11.75
2022-10-29T14:52:52.573Z,10.85
2022-10-29T14:58:04.421Z,9.90
2022-10-29T15:03:08.531Z,9.50
2022-10-29T15:08:19.166Z,10.00
2022-10-29T15:13:27.692Z,10.85
2022-10-29T15:18:45.184Z,12.75
2022-10-29T15:30:31.329Z,15.02
2022-10-29T15:35:41.241Z,10.45
2022-10-29T15:41:08.214Z,16.55
2022-10-29T15:46:16.159Z,20.10
2022-10-29T15:51:29.118Z,13.65
2022-10-29T15:56:53.432Z,18.02
2022-10-29T16:06:58.831Z,15.27
2022-10-29T16:12:02.955Z,19.33
2022-10-29T16:22:17.910Z,16.05
2022-10-29T16:27:29.736Z,24.67
2022-10-29T16:32:34.923Z,25.42
2022-10-29T16:37:37.630Z,23.15
2022-10-29T16:42:42.543Z,27.42
2022-10-29T16:47:45.441Z,28.98
2022-10-29T16:52:48.404Z,26.90
2022-10-29T16:57:55.460Z,33.45
2022-10-29T17:03:03.373Z,35.47
2022-10-29T17:08:11.208Z,31.65
2022-10-29T17:13:15.370Z,30.55
2022-10-29T17:23:20.585Z,26.20
2022-10-29T17:28:29.148Z,28.45
2022-10-29T17:33:31.832Z,25.35
2022-10-29T17:38:34.864Z,27.30
2022-10-29T17:43:39.037Z,28.02
2022-10-29T17:48:42.196Z,26.10
2022-10-29T17:53:44.969Z,22.38
2022-10-29T17:58:49.226Z,23.42
2022-10-29T18:03:52.372Z,26.02
2022-10-29T18:08:55.153Z,24.70
2022-10-29T18:13:59.669Z,22.83
2022-10-29T18:19:03.773Z,22.58
2022-10-29T18:29:12.830Z,22.15
2022-10-29T18:34:19.996Z,15.60
2022-10-29T18:39:22.799Z,20.65
2022-10-29T18:44:27.076Z,21.33
2022-10-29T18:54:32.485Z,23.17
2022-10-29T18:59:36.773Z,23.63
2022-10-29T19:09:42.314Z,17.95
2022-10-29T19:14:46.679Z,17.38
2022-10-29T19:19:49.532Z,25.30
2022-10-29T19:24:57.553Z,21.23
2022-10-29T19:30:02.372Z,20.23
2022-10-29T19:35:05.587Z,22.10
2022-10-29T19:40:11.659Z,19.45
2022-10-29T19:45:16.103Z,18.27
2022-10-29T19:50:18.984Z,23.08
2022-10-29T19:55:21.933Z,22.83
2022-10-29T20:00:26.314Z,19.02
2022-10-29T20:05:29.154Z,17.65
2022-10-29T20:10:35.316Z,21.88
2022-10-29T20:15:41.727Z,25.27
2022-10-29T20:20:44.683Z,19.58
2022-10-29T20:25:47.449Z,25.58
2022-10-29T20:30:51.555Z,21.98
2022-10-29T20:35:54.432Z,19.20
2022-10-29T20:40:57.341Z,16.42
2022-10-29T20:46:02.229Z,18.88
2022-10-29T20:51:05.378Z,21.05
2022-10-29T20:56:11.568Z,17.27
2022-10-29T21:01:20.701Z,19.80
2022-10-29T21:06:23.587Z,17.55
2022-10-29T21:11:26.448Z,23.63
2022-10-29T21:16:34.575Z,18.98
2022-10-29T21:21:38.118Z,16.85
2022-10-29T21:26:41.036Z,19.17
2022-10-29T21:31:47.950Z,19.60
2022-10-29T21:36:50.983Z,24.60
2022-10-29T21:42:00.891Z,22.92
2022-10-29T21:47:05.465Z,18.30
2022-10-29T21:52:08.206Z,22.38
2022-10-29T21:57:11.212Z,22.98
2022-10-29T22:02:15.580Z,19.85
2022-10-29T22:12:20.959Z,23.83
2022-10-29T22:17:28.314Z,19.27
2022-10-29T22:22:31.185Z,22.05
2022-10-29T22:27:34.015Z,17.45
2022-10-29T22:32:38.433Z,16.58
2022-10-29T22:42:44.431Z,16.98
2022-10-29T22:47:48.522Z,18.67
2022-10-29T22:52:51.241Z,13.88
2022-10-29T22:57:54.088Z,15.98
2022-10-29T23:02:59.971Z,15.10
2022-10-29T23:08:03.029Z,16.40
2022-10-29T23:13:05.831Z,17.02
2022-10-29T23:18:10.564Z,18.27
2022-10-29T23:23:14.520Z,19.30
2022-10-29T23:28:17.373Z,20.15
2022-10-29T23:33:21.849Z,15.07
2022-10-29T23:38:24.705Z,17.05
2022-10-29T23:43:27.673Z,17.80
2022-10-29T23:48:31.853Z,18.75
2022-10-29T23:53:34.522Z,11.57
2022-10-29T23:58:37.145Z,12.73
